createdAt,value
2022-10-15T00:01:52.650Z,97655.19
2022-10-15T00:06:54.549Z,97657.53
2022-10-15T00:11:56.391Z,97650.97
2022-10-15T00:16:58.261Z,97650.97
2022-10-15T00:27:06.980Z,97644.41
2022-10-15T00:32:09.304Z,97650.19
2022-10-15T00:37:14.013Z,97639.63
2022-10-15T00:42:16.970Z,97633.44
2022-10-15T00:47:23.780Z,97636.63
2022-10-15T00:52:47.810Z,97627.59
2022-10-15T00:57:50.746Z,97625.31
2022-10-15T01:02:52.566Z,97623.69
2022-10-15T01:07:54.714Z,97620.56
2022-10-15T01:13:20.203Z,97611.97
2022-10-15T01:18:53.336Z,97591.97
2022-10-15T01:24:06.973Z,97593.91
2022-10-15T01:29:30.357Z,97586.88
2022-10-15T01:34:47.059Z,97587.47
2022-10-15T01:39:57.545Z,97578.53
2022-10-15T01:45:07.769Z,97591.16
2022-10-15T01:50:31.087Z,97579.88
2022-10-15T01:55:36.827Z,97581.81
2022-10-15T02:00:41.634Z,97582.53
2022-10-15T02:06:02.928Z,97580.19
2022-10-15T02:11:09.897Z,97580.91
2022-10-15T02:16:21.255Z,97566.81
2022-10-15T02:21:32.890Z,97562.91
2022-10-15T02:26:37.577Z,97564.31
2022-10-15T02:31:43.796Z,97552.59
2022-10-15T02:36:47.060Z,97552.19
2022-10-15T02:41:49.227Z,97543.53
2022-10-15T02:46:51.241Z,97548.56
2022-10-15T02:51:54.851Z,97541.50
2022-10-15T02:56:56.754Z,97535.31
2022-10-15T03:01:59.414Z,97538.81
2022-10-15T03:07:02.466Z,97529.81
2022-10-15T03:12:06.412Z,97529.81
2022-10-15T03:17:08.768Z,97523.63
2022-10-15T03:22:10.978Z,97523.25
2022-10-15T03:27:24.413Z,97508.03
2022-10-15T03:32:26.876Z,97512.75
2022-10-15T03:37:29.033Z,97512.88
2022-10-15T03:42:31.529Z,97505.38
2022-10-15T03:47:34.798Z,97511.94
2022-10-15T03:52:37.697Z,97506.34
2022-10-15T03:57:39.992Z,97517.22
2022-10-15T04:02:42.322Z,97501.97
2022-10-15T04:07:54.877Z,97515.97
2022-10-15T04:12:58.301Z,97519.84
2022-10-15T04:18:01.564Z,97519.84
2022-10-15T04:23:04.680Z,97520.69
2022-10-15T04:28:07.223Z,97516.38
2022-10-15T04:33:11.795Z,97517.94
2022-10-15T04:38:14.715Z,97521.88
2022-10-15T04:43:34.145Z,97512.56
2022-10-15T04:48:42.999Z,97518.88
2022-10-15T04:53:47.914Z,97500.16
2022-10-15T04:58:51.235Z,97498.31
2022-10-15T05:03:53.226Z,97506.75
2022-10-15T05:08:55.132Z,97501.44
2022-10-15T05:14:04.080Z,97509.28
2022-10-15T05:19:08.843Z,97498.38
2022-10-15T05:24:13.038Z,97518.38
2022-10-15T05:29:50.114Z,97510.91
2022-10-15T05:34:52.003Z,97506.94
2022-10-15T05:39:54.036Z,97513.22
2022-10-15T05:44:56.094Z,97517.09
2022-10-15T05:49:57.913Z,97513.94
2022-10-15T05:55:05.084Z,97502.56
2022-10-15T06:00:08.612Z,97502.94
2022-10-15T06:05:16.258Z,97510.75
2022-10-15T06:10:18.481Z,97506.50
2022-10-15T06:15:20.377Z,97511.97
2022-10-15T06:20:22.257Z,97510.81
2022-10-15T06:25:24.178Z,97508.88
2022-10-15T06:30:25.965Z,97527.22
2022-10-15T06:35:30.559Z,97536.56
2022-10-15T06:40:32.741Z,97534.25
2022-10-15T06:45:36.695Z,97537.31
2022-10-15T06:50:42.462Z,97555.25
2022-10-15T06:55:44.356Z,97552.84
2022-10-15T07:00:46.172Z,97543.41
2022-10-15T07:05:48.036Z,97555.50
2022-10-15T07:10:49.853Z,97546.41
2022-10-15T07:15:54.198Z,97547.50
2022-10-15T07:20:57.250Z,97547.78
2022-10-15T07:26:00.694Z,97550.81
2022-10-15T07:31:04.594Z,97556.16
2022-10-15T07:36:08.833Z,97552.22
2022-10-15T07:41:11.078Z,97553.66
2022-10-15T07:46:17.195Z,97553.97
2022-10-15T07:51:19.134Z,97557.38
2022-10-15T07:56:20.976Z,97548.22
2022-10-15T08:01:22.835Z,97559.47
2022-10-15T08:06:24.755Z,97568.41
2022-10-15T08:11:27.145Z,97571.03
2022-10-15T08:16:29.232Z,97576.38
2022-10-15T08:21:33.515Z,97585.69
2022-10-15T08:26:36.664Z,97585.59
2022-10-15T08:31:39.615Z,97582.34
2022-10-15T08:36:41.375Z,97572.81
2022-10-15T08:41:48.866Z,97576.97
2022-10-15T08:46:55.243Z,97584.25
2022-10-15T08:52:07.903Z,97601.28
2022-10-15T08:57:18.767Z,97598.06
2022-10-15T09:02:34.888Z,97589.34
2022-10-15T09:07:45.131Z,97594.63
2022-10-15T09:13:02.038Z,97598.34
2022-10-15T09:18:04.859Z,97603.84
2022-10-15T09:23:22.538Z,97597.16
2022-10-15T09:28:29.937Z,97607.03
2022-10-15T09:33:31.952Z,97618.66
2022-10-15T09:38:50.180Z,97621.59
2022-10-15T09:43:55.953Z,97621.59
2022-10-15T09:49:11.790Z,97630.03
2022-10-15T09:54:36.050Z,97637.69
2022-10-15T09:59:37.932Z,97644.75
2022-10-15T10:04:40.598Z,97643.97
2022-10-15T10:09:55.708Z,97633.47
2022-10-15T10:14:57.419Z,97651.28
2022-10-15T10:20:14.888Z,97652.34
2022-10-15T10:25:29.113Z,97658.53
2022-10-15T10:30:37.435Z,97650.31
2022-10-15T10:35:50.346Z,97648.69
2022-10-15T10:41:00.549Z,97652.91
2022-10-15T10:46:23.497Z,97656.31
2022-10-15T10:51:27.861Z,97645.63
2022-10-15T10:56:35.669Z,97645.66
2022-10-15T11:01:37.569Z,97654.41
2022-10-15T11:07:01.022Z,97655.97
2022-10-15T11:12:20.918Z,97653.56
2022-10-15T11:17:37.596Z,97655.13
2022-10-15T11:23:13.351Z,97660.38
2022-10-15T11:28:52.682Z,97661.34
2022-10-15T11:34:03.495Z,97651.34
2022-10-15T11:39:20.246Z,97652.72
2022-10-15T11:44:48.536Z,97655.72
2022-10-15T11:49:59.421Z,97665.19
2022-10-15T11:55:50.173Z,97662.53
2022-10-15T12:00:58.999Z,97665.44
2022-10-15T12:06:11.440Z,97660.94
2022-10-15T12:11:44.602Z,97667.28
2022-10-15T12:22:39.798Z,97665.44
2022-10-15T12:27:42.337Z,97665.59
2022-10-15T12:32:47.811Z,97675.38
2022-10-15T12:37:50.965Z,97668.22
2022-10-15T12:43:01.745Z,97670.03
2022-10-15T12:48:05.458Z,97679.34
2022-10-15T12:53:26.559Z,97665.19
2022-10-15T12:58:34.924Z,97670.25
2022-10-15T13:03:58.856Z,97663.66
2022-10-15T13:09:06.831Z,97654.19
2022-10-15T13:14:27.948Z,97658.50
2022-10-15T13:19:41.092Z,97640.91
2022-10-15T13:24:45.691Z,97639.94
2022-10-15T13:29:59.741Z,97645.97
2022-10-15T13:35:10.773Z,97647.44
2022-10-15T13:40:25.598Z,97639.94
2022-10-15T13:45:27.622Z,97647.84
2022-10-15T13:50:33.049Z,97651.13
2022-10-15T13:55:39.094Z,97647.41
2022-10-15T14:00:41.179Z,97654.81
2022-10-15T14:05:45.980Z,97646.47
2022-10-15T14:10:49.767Z,97651.41
2022-10-15T14:15:54.378Z,97655.03
2022-10-15T14:20:57.076Z,97671.44
2022-10-15T14:26:02.331Z,97666.44
2022-10-15T14:31:04.842Z,97679.94
2022-10-15T14:36:41.341Z,97677.16
2022-10-15T14:42:04.627Z,97676.09
2022-10-15T14:47:06.692Z,97687.19
2022-10-15T14:52:15.298Z,97679.50
2022-10-15T14:57:27.585Z,97682.41
2022-10-15T15:02:30.321Z,97675.44
2022-10-15T15:07:32.227Z,97679.50
2022-10-15T15:12:35.976Z,97679.84
2022-10-15T15:17:38.242Z,97685.03
2022-10-15T15:22:41.988Z,97681.38
2022-10-15T15:27:44.142Z,97687.97
2022-10-15T15:32:46.938Z,97689.94
2022-10-15T15:37:48.790Z,97694.88
2022-10-15T15:42:50.863Z,97701.47
2022-10-15T15:47:53.576Z,97718.06
2022-10-15T15:52:55.759Z,97727.72
2022-10-15T15:57:57.607Z,97726.69
2022-10-15T16:02:59.404Z,97732.22
2022-10-15T16:08:01.308Z,97730.84
2022-10-15T16:13:03.414Z,97735.22
2022-10-15T16:18:05.327Z,97730.34
2022-10-15T16:23:07.109Z,97739.97
2022-10-15T16:28:08.935Z,97736.78
2022-10-15T16:33:10.900Z,97743.91
2022-10-15T16:38:12.825Z,97756.38
2022-10-15T16:43:14.728Z,97760.06
2022-10-15T16:48:17.256Z,97767.06
2022-10-15T16:53:19.532Z,97769.97
2022-10-15T16:58:21.630Z,97772.19
2022-10-15T17:03:23.854Z,97779.53
2022-10-15T17:08:46.378Z,97773.34
2022-10-15T17:13:50.696Z,97781.03
2022-10-15T17:18:54.168Z,97786.19
2022-10-15T17:23:58.697Z,97799.72
2022-10-15T17:29:01.101Z,97813.94
2022-10-15T17:34:06.402Z,97812.38
2022-10-15T17:39:09.584Z,97824.72
2022-10-15T17:44:12.239Z,97821.25
2022-10-15T17:49:18.419Z,97821.34
2022-10-15T17:54:20.348Z,97823.03
2022-10-15T17:59:22.125Z,97819.06
2022-10-15T18:04:24.489Z,97825.22
2022-10-15T18:09:28.296Z,97843.25
2022-10-15T18:14:32.189Z,97848.47
2022-10-15T18:19:34.283Z,97849.66
2022-10-15T18:24:36.345Z,97847.94
2022-10-15T18:29:40.076Z,97855.69
2022-10-15T18:34:42.859Z,97850.69
2022-10-15T18:39:45.008Z,97852.66
2022-10-15T18:44:47.202Z,97858.28
2022-10-15T18:49:49.124Z,97857.72
2022-10-15T18:54:51.103Z,97856.25
2022-10-15T19:05:00.361Z,97870.78
2022-10-15T19:10:02.793Z,97878.69
2022-10-15T19:15:05.150Z,97869.81
2022-10-15T19:20:07.458Z,97858.59
2022-10-15T19:25:09.666Z,97862.91
2022-10-15T19:30:12.107Z,97867.97
2022-10-15T19:35:14.766Z,97870.31
2022-10-15T19:40:16.720Z,97864.75
2022-10-15T19:45:19.031Z,97869.03
2022-10-15T19:50:20.896Z,97878.44
2022-10-15T19:55:25.675Z,97868.28
2022-10-15T20:00:29.735Z,97885.50
2022-10-15T20:05:31.580Z,97891.78
2022-10-15T20:10:33.558Z,97897.66
2022-10-15T20:15:35.397Z,97894.06
2022-10-15T20:20:43.038Z,97891.22
2022-10-15T20:25:46.069Z,97910.34
2022-10-15T20:30:49.840Z,97911.91
2022-10-15T20:35:51.750Z,97922.03
2022-10-15T20:40:56.760Z,97927.00
2022-10-15T20:45:58.633Z,97939.97
2022-10-15T20:51:01.530Z,97944.63
2022-10-15T20:56:06.146Z,97955.69
2022-10-15T21:01:08.148Z,97961.16
2022-10-15T21:06:09.999Z,97968.28
2022-10-15T21:11:11.786Z,97959.69
2022-10-15T21:16:13.678Z,97969.91
2022-10-15T21:21:15.720Z,97970.75
2022-10-15T21:26:18.574Z,97970.00
2022-10-15T21:31:20.401Z,97970.75
2022-10-15T21:36:26.515Z,97981.34
2022-10-15T21:41:30.758Z,97963.72
2022-10-15T21:46:33.078Z,97977.81
2022-10-15T21:51:36.026Z,97963.72
2022-10-15T21:56:38.229Z,97960.16
2022-10-15T22:01:42.117Z,97979.38
2022-10-15T22:06:44.208Z,97991.91
2022-10-15T22:11:46.516Z,97995.03
2022-10-15T22:16:48.364Z,97996.59
2022-10-15T22:21:50.178Z,97985.56
2022-10-15T22:26:52.851Z,97991.84
2022-10-15T22:31:55.108Z,97995.41
2022-10-15T22:36:57.009Z,98000.06
2022-10-15T22:41:58.877Z,97998.50
2022-10-15T22:47:00.692Z,98003.16
2022-10-15T22:52:02.895Z,98019.25
2022-10-15T22:57:04.722Z,98025.50
2022-10-15T23:02:06.558Z,98016.97
2022-10-15T23:07:08.352Z,98027.25
2022-10-15T23:12:10.178Z,98027.75
2022-10-15T23:17:11.989Z,98027.53
2022-10-15T23:22:13.834Z,98027.00
2022-10-15T23:27:16.224Z,98006.69
2022-10-15T23:32:18.043Z,98016.59
2022-10-15T23:37:19.868Z,98028.59
2022-10-15T23:42:21.747Z,98024.66
2022-10-15T23:47:23.895Z,98029.00
2022-10-15T23:52:25.960Z,98029.09
2022-10-15T23:57:28.241Z,98027.22
